Time;durP1;ratioP1;P1;durP2;ratioP2;P2;SDS_P1;SDS_P2;PMS_P1;PMS_P2;Temp;Humidity;BMP_temperature;BMP_pressure;BME280_temperature;BME280_humidity;BME280_pressure;Samples;Min_cycle;Max_cycle;Signal;HPM_P1;HPM_P2
2022/05/20 00:02:25;;;;;;;10.30;4.60;;;13.10;99.90;;;;;;5090516;28;20396;-70
2022/05/20 00:04:51;;;;;;;9.25;4.90;;;13.10;99.90;;;;;;5072359;28;20048;-69
2022/05/20 00:07:16;;;;;;;11.25;5.03;;;13.10;99.90;;;;;;5090319;28;20056;-71
2022/05/20 00:09:42;;;;;;;9.10;5.15;;;13.10;99.90;;;;;;5090034;28;20103;-69
2022/05/20 00:12:08;;;;;;;10.98;6.40;;;13.10;99.90;;;;;;5089941;28;20040;-70
2022/05/20 00:14:34;;;;;;;9.85;5.82;;;13.10;99.90;;;;;;5072207;28;20139;-70
2022/05/20 00:17:05;;;;;;;12.38;6.25;;;13.00;99.90;;;;;;5090197;28;20479;-69
2022/05/20 00:19:32;;;;;;;14.27;6.43;;;13.10;99.90;;;;;;5090360;28;20048;-70
2022/05/20 00:21:58;;;;;;;11.32;6.65;;;13.00;99.90;;;;;;5071964;28;20388;-70
2022/05/20 00:24:23;;;;;;;9.80;5.78;;;13.10;99.90;;;;;;5090112;28;20105;-68
2022/05/20 00:26:50;;;;;;;10.07;6.22;;;13.00;99.90;;;;;;5090551;28;20051;-69
2022/05/20 00:29:17;;;;;;;11.20;6.93;;;13.00;99.90;;;;;;5090451;28;20063;-70
2022/05/20 00:31:42;;;;;;;10.70;5.90;;;13.00;99.90;;;;;;5090408;28;20048;-69
2022/05/20 00:34:08;;;;;;;14.73;7.70;;;12.90;99.90;;;;;;5071966;28;20048;-69
2022/05/20 00:36:34;;;;;;;12.90;6.90;;;12.90;99.90;;;;;;5090172;28;20518;-69
2022/05/20 00:38:59;;;;;;;12.30;6.65;;;12.90;99.90;;;;;;5071731;28;20396;-70
2022/05/20 00:41:25;;;;;;;9.48;7.18;;;12.90;99.90;;;;;;5089710;28;20514;-70
2022/05/20 00:43:51;;;;;;;15.35;7.68;;;12.90;99.90;;;;;;5090062;28;20624;-70
2022/05/20 00:46:20;;;;;;;12.07;6.65;;;12.90;99.90;;;;;;5071711;28;20527;-69
2022/05/20 00:48:50;;;;;;;13.63;6.57;;;12.80;99.90;;;;;;5071867;28;20051;-70
2022/05/20 00:51:23;;;;;;;12.55;7.20;;;12.80;99.90;;;;;;5089800;28;20036;-71
2022/05/20 00:53:55;;;;;;;11.55;7.30;;;12.70;99.90;;;;;;5089683;28;20507;-69
2022/05/20 00:56:25;;;;;;;12.18;7.45;;;12.60;99.90;;;;;;5090307;28;20431;-70
2022/05/20 00:58:53;;;;;;;16.27;7.20;;;12.60;99.90;;;;;;5073155;28;20048;-69
2022/05/20 01:01:20;;;;;;;10.80;7.03;;;12.50;99.90;;;;;;5093855;28;20055;-74
2022/05/20 01:03:47;;;;;;;12.10;6.82;;;12.40;99.90;;;;;;5075309;28;20119;-70
2022/05/20 01:06:13;;;;;;;10.98;7.25;;;12.30;99.90;;;;;;5074809;28;20063;-72
2022/05/20 01:08:41;;;;;;;12.23;7.30;;;12.30;99.90;;;;;;5093188;28;20052;-72
2022/05/20 01:11:06;;;;;;;13.07;6.82;;;12.30;99.90;;;;;;5093553;28;20119;-70
2022/05/20 01:13:33;;;;;;;12.98;6.80;;;12.30;99.90;;;;;;5074603;28;20147;-71
2022/05/20 01:16:02;;;;;;;13.48;6.90;;;12.20;99.90;;;;;;5075024;28;20066;-69
2022/05/20 01:18:31;;;;;;;13.75;7.45;;;12.10;99.90;;;;;;5093087;28;20094;-71
2022/05/20 01:20:57;;;;;;;13.18;7.72;;;12.10;99.90;;;;;;5093038;28;20131;-70
2022/05/20 01:23:26;;;;;;;14.20;8.43;;;12.00;99.90;;;;;;5074841;28;20553;-70
2022/05/20 01:25:54;;;;;;;15.25;7.60;;;11.90;99.90;;;;;;5075261;28;20422;-72
2022/05/20 01:28:22;;;;;;;16.05;8.68;;;11.90;99.90;;;;;;5074681;28;20048;-69
2022/05/20 01:31:00;;;;;;;15.27;9.73;;;11.90;99.90;;;;;;5093201;28;20495;-71
2022/05/20 01:33:34;;;;;;;14.95;9.80;;;11.90;99.90;;;;;;5092966;28;20048;-70
2022/05/20 01:36:03;;;;;;;18.02;9.80;;;11.90;99.90;;;;;;5092897;28;20156;-71
2022/05/20 01:38:30;;;;;;;17.10;10.10;;;12.00;99.90;;;;;;5093174;28;20055;-73
2022/05/20 01:41:23;;;;;;;16.17;10.02;;;11.90;99.90;;;;;;5074484;28;20105;-71
2022/05/20 01:44:14;;;;;;;15.52;9.93;;;11.90;99.90;;;;;;5092562;28;20051;-71
2022/05/20 01:46:45;;;;;;;18.60;10.50;;;12.00;99.90;;;;;;5092655;28;20040;-71
2022/05/20 01:49:20;;;;;;;15.18;10.48;;;11.90;99.90;;;;;;5074458;28;20105;-70
2022/05/20 01:51:50;;;;;;;19.15;11.02;;;11.90;99.90;;;;;;5092775;28;20043;-71
2022/05/20 01:54:37;;;;;;;17.17;10.75;;;11.90;99.90;;;;;;5092400;28;20044;-70
2022/05/20 01:57:26;;;;;;;19.13;10.95;;;11.90;99.90;;;;;;5074107;28;20048;-72
2022/05/20 02:00:00;;;;;;;12.85;9.48;;;11.90;99.90;;;;;;5057279;28;20044;-71
2022/05/20 02:02:37;;;;;;;13.57;9.85;;;11.90;99.90;;;;;;5074032;28;20055;-69
2022/05/20 02:05:11;;;;;;;17.80;10.55;;;11.90;99.90;;;;;;5092370;28;20403;-70
2022/05/20 02:07:41;;;;;;;13.70;9.15;;;11.90;99.90;;;;;;5073660;28;20056;-72
2022/05/20 02:10:18;;;;;;;17.48;9.57;;;11.90;99.90;;;;;;5091180;28;20503;-71
2022/05/20 02:12:49;;;;;;;14.50;9.10;;;11.90;99.90;;;;;;5073921;28;20479;-70
2022/05/20 02:15:21;;;;;;;15.13;10.05;;;11.90;99.90;;;;;;5091810;28;20048;-70
2022/05/20 02:17:53;;;;;;;13.77;9.88;;;12.00;99.90;;;;;;5092011;28;20051;-71
2022/05/20 02:20:41;;;;;;;15.02;10.02;;;11.90;99.90;;;;;;5074074;28;20403;-69
2022/05/20 02:23:14;;;;;;;17.00;10.68;;;11.90;99.90;;;;;;5073690;28;20075;-69
2022/05/20 02:25:46;;;;;;;13.93;9.35;;;11.90;99.90;;;;;;5073915;28;20444;-70
2022/05/20 02:28:30;;;;;;;12.77;9.02;;;12.00;99.90;;;;;;5091897;28;20076;-70
2022/05/20 02:30:58;;;;;;;15.00;9.15;;;11.70;99.90;;;;;;5073260;28;20086;-70
2022/05/20 02:33:26;;;;;;;11.52;8.65;;;11.50;99.90;;;;;;5091908;28;20146;-71
2022/05/20 02:36:00;;;;;;;9.75;7.47;;;11.70;99.90;;;;;;5091878;28;20040;-71
2022/05/20 02:38:25;;;;;;;10.85;8.18;;;11.40;99.90;;;;;;5091695;28;20118;-70
2022/05/20 02:40:53;;;;;;;9.20;7.22;;;11.30;99.90;;;;;;5073460;28;20131;-71
2022/05/20 02:43:20;;;;;;;9.38;8.38;;;11.30;99.90;;;;;;5091650;28;20051;-73
2022/05/20 02:45:48;;;;;;;12.18;9.38;;;11.30;99.90;;;;;;5091197;28;20123;-70
2022/05/20 02:48:15;;;;;;;11.77;8.10;;;11.30;99.90;;;;;;5091624;28;20052;-69
2022/05/20 02:50:41;;;;;;;13.15;9.63;;;11.30;99.90;;;;;;5073510;28;20048;-69
2022/05/20 02:53:07;;;;;;;15.10;10.18;;;11.30;99.90;;;;;;5073462;28;20052;-70
2022/05/20 02:55:33;;;;;;;13.00;8.10;;;11.30;99.90;;;;;;5091364;28;20536;-70
2022/05/20 02:57:59;;;;;;;9.75;8.13;;;11.20;99.90;;;;;;5091158;28;20091;-71
2022/05/20 03:05:52;;;;;;;8.75;6.25;;;11.00;99.90;;;;;;5073080;28;20403;-69
2022/05/20 03:08:19;;;;;;;13.88;9.23;;;11.00;99.90;;;;;;5082652;28;20048;-70
2022/05/20 03:10:45;;;;;;;11.35;9.02;;;10.90;99.90;;;;;;5091139;28;20082;-69
2022/05/20 03:13:11;;;;;;;12.00;8.23;;;10.90;99.90;;;;;;5072572;28;20052;-70
2022/05/20 03:15:39;;;;;;;11.48;8.75;;;11.00;99.90;;;;;;5072788;28;20086;-70
2022/05/20 03:18:09;;;;;;;12.35;7.90;;;10.80;99.90;;;;;;5072395;28;20125;-69
2022/05/20 03:20:37;;;;;;;9.40;7.40;;;10.80;99.90;;;;;;5090859;28;20598;-69
2022/05/20 03:23:03;;;;;;;14.15;10.18;;;10.80;99.90;;;;;;5072094;28;20044;-70
2022/05/20 03:25:28;;;;;;;12.05;10.55;;;10.80;99.90;;;;;;5090894;28;20052;-70
2022/05/20 03:27:54;;;;;;;8.27;6.45;;;10.80;99.90;;;;;;5072836;28;20093;-69
2022/05/20 03:30:20;;;;;;;11.43;7.18;;;10.70;99.90;;;;;;5090996;28;20055;-70
2022/05/20 03:32:46;;;;;;;7.22;5.68;;;10.60;99.90;;;;;;5090412;28;20528;-68
2022/05/20 03:35:13;;;;;;;8.75;6.47;;;10.60;99.90;;;;;;5090724;28;20127;-69
2022/05/20 03:37:39;;;;;;;24.08;8.45;;;10.50;99.90;;;;;;5090526;28;20105;-70
2022/05/20 03:40:06;;;;;;;9.65;7.32;;;10.40;99.90;;;;;;5090455;28;20046;-69
2022/05/20 03:42:32;;;;;;;13.68;7.22;;;10.30;99.90;;;;;;5090561;28;20754;-70
2022/05/20 03:44:57;;;;;;;13.15;8.15;;;10.40;99.90;;;;;;5072665;28;20055;-69
2022/05/20 03:47:23;;;;;;;12.10;8.75;;;10.30;99.90;;;;;;5091086;28;20399;-76
2022/05/20 03:49:49;;;;;;;10.48;8.95;;;10.30;99.90;;;;;;5090323;28;20052;-69
2022/05/20 03:52:16;;;;;;;10.75;7.95;;;10.30;99.90;;;;;;5071726;28;20059;-71
2022/05/20 03:54:42;;;;;;;9.10;7.68;;;10.30;99.90;;;;;;5090164;28;20129;-75
2022/05/20 03:57:09;;;;;;;10.82;8.30;;;10.20;99.90;;;;;;5090581;28;20047;-71
2022/05/20 03:59:38;;;;;;;11.25;8.95;;;10.20;99.90;;;;;;5090337;28;20055;-70
2022/05/20 04:02:10;;;;;;;11.07;8.52;;;10.20;99.90;;;;;;5090392;28;20508;-71
2022/05/20 04:04:40;;;;;;;11.25;8.07;;;10.20;99.90;;;;;;5090053;28;20146;-70
2022/05/20 04:07:10;;;;;;;25.23;10.73;;;10.20;99.90;;;;;;5090078;28;20133;-70
2022/05/20 04:09:36;;;;;;;13.77;9.27;;;10.20;99.90;;;;;;5090079;28;20052;-71
2022/05/20 04:12:05;;;;;;;15.15;9.65;;;10.20;99.90;;;;;;5072044;28;20127;-70
2022/05/20 04:14:32;;;;;;;11.10;7.45;;;10.30;99.90;;;;;;5090271;28;20119;-69
2022/05/20 04:16:57;;;;;;;8.93;7.13;;;10.30;99.90;;;;;;5090248;28;20048;-70
2022/05/20 04:19:29;;;;;;;10.00;6.85;;;10.30;99.90;;;;;;5090041;28;20036;-71
2022/05/20 04:21:59;;;;;;;15.90;7.82;;;10.30;99.90;;;;;;5089901;28;20411;-69
2022/05/20 04:24:25;;;;;;;12.43;9.65;;;10.30;99.90;;;;;;5071986;28;20153;-70
2022/05/20 04:26:51;;;;;;;23.33;12.73;;;10.30;99.90;;;;;;5090415;28;20051;-71
2022/05/20 04:29:18;;;;;;;15.30;11.57;;;10.40;99.90;;;;;;5090052;28;20047;-70
2022/05/20 04:31:49;;;;;;;20.55;13.15;;;10.40;99.90;;;;;;5071972;28;20135;-72
2022/05/20 04:34:15;;;;;;;19.88;13.73;;;10.50;99.90;;;;;;5073953;28;20063;-70
2022/05/20 04:36:40;;;;;;;22.85;13.63;;;10.50;99.90;;;;;;5093875;28;20052;-70
2022/05/20 04:39:06;;;;;;;21.67;15.93;;;10.60;99.90;;;;;;5075729;28;20042;-70
2022/05/20 04:47:02;;;;;;;20.35;13.27;;;10.60;99.90;;;;;;5093756;28;20086;-69
2022/05/20 04:49:31;;;;;;;19.88;13.80;;;10.80;99.90;;;;;;5093597;28;20058;-70
2022/05/20 04:51:56;;;;;;;18.83;13.90;;;10.80;99.90;;;;;;5093830;28;20040;-71
2022/05/20 04:57:08;;;;;;;19.20;14.90;;;10.90;99.90;;;;;;5093623;28;20130;-69
2022/05/20 04:59:35;;;;;;;24.63;16.50;;;11.40;99.90;;;;;;5075371;28;20080;-69
2022/05/20 05:02:01;;;;;;;23.08;16.67;;;11.00;99.90;;;;;;5075498;28;20380;-70
2022/05/20 05:04:27;;;;;;;21.80;16.95;;;11.10;99.90;;;;;;5075194;28;20100;-71
2022/05/20 05:06:52;;;;;;;27.30;16.65;;;11.20;99.90;;;;;;5074653;28;20056;-70
2022/05/20 05:09:18;;;;;;;22.27;15.98;;;11.20;99.90;;;;;;5093505;28;20118;-71
2022/05/20 05:11:44;;;;;;;18.42;15.15;;;11.40;99.90;;;;;;5093273;28;20043;-71
2022/05/20 05:14:13;;;;;;;22.48;17.40;;;11.30;99.90;;;;;;5093356;28;20116;-69
2022/05/20 05:16:40;;;;;;;24.25;16.75;;;11.40;99.90;;;;;;5093208;28;20048;-72
2022/05/20 05:19:06;;;;;;;18.73;15.13;;;11.50;99.90;;;;;;5092979;28;20059;-71
2022/05/20 05:21:32;;;;;;;19.90;15.50;;;11.50;99.90;;;;;;5092988;28;20587;-72
2022/05/20 05:24:01;;;;;;;23.25;16.83;;;11.70;99.90;;;;;;5075132;28;20177;-70
2022/05/20 05:26:31;;;;;;;20.17;15.63;;;11.70;99.90;;;;;;5075162;28;20040;-70
2022/05/20 05:28:58;;;;;;;23.73;15.10;;;11.90;99.90;;;;;;5074844;28;20040;-71
2022/05/20 05:31:26;;;;;;;24.50;17.73;;;11.90;99.90;;;;;;5092972;28;20096;-71
2022/05/20 05:33:52;;;;;;;25.63;17.02;;;12.10;99.90;;;;;;5092886;28;20052;-70
2022/05/20 05:36:18;;;;;;;25.85;16.00;;;12.10;99.90;;;;;;5092703;28;20044;-71
2022/05/20 05:38:44;;;;;;;21.27;14.57;;;12.20;99.90;;;;;;5074581;28;20054;-70
2022/05/20 05:41:10;;;;;;;20.27;15.18;;;12.30;99.90;;;;;;5092699;28;20054;-70
2022/05/20 05:43:37;;;;;;;22.92;16.00;;;12.40;99.90;;;;;;5092822;28;20395;-70
2022/05/20 05:46:04;;;;;;;23.83;15.77;;;12.50;99.90;;;;;;5092223;28;20040;-70
2022/05/20 05:48:30;;;;;;;25.35;16.45;;;12.70;99.90;;;;;;5092647;28;20044;-70
2022/05/20 05:50:56;;;;;;;20.73;15.68;;;13.10;99.90;;;;;;5092802;28;20040;-71
2022/05/20 05:53:24;;;;;;;25.95;16.08;;;12.80;99.90;;;;;;5092332;28;20097;-71
2022/05/20 05:55:58;;;;;;;23.42;16.45;;;13.00;99.90;;;;;;5092851;28;20044;-71
2022/05/20 05:58:25;;;;;;;29.38;17.70;;;13.00;99.90;;;;;;5092746;28;20127;-71
2022/05/20 06:00:51;;;;;;;23.23;16.20;;;13.20;99.90;;;;;;5074199;28;20048;-70
2022/05/20 06:03:17;;;;;;;23.25;15.80;;;13.30;99.90;;;;;;5092604;28;20035;-71
2022/05/20 06:05:43;;;;;;;23.63;14.25;;;13.40;99.90;;;;;;5074145;28;20044;-70
2022/05/20 06:08:09;;;;;;;21.33;12.50;;;13.60;99.90;;;;;;5073642;28;20055;-70
2022/05/20 06:10:35;;;;;;;18.73;12.32;;;13.60;99.90;;;;;;5092333;28;20055;-70
2022/05/20 06:13:00;;;;;;;19.02;10.80;;;13.70;99.90;;;;;;5074068;28;20044;-71
2022/05/20 06:15:26;;;;;;;17.02;9.40;;;13.70;99.90;;;;;;5092084;28;20530;-71
2022/05/20 06:17:53;;;;;;;19.65;9.50;;;13.80;99.90;;;;;;5091989;28;20605;-70
2022/05/20 06:20:20;;;;;;;17.05;10.45;;;13.90;99.90;;;;;;5092274;28;20415;-70
2022/05/20 06:22:46;;;;;;;18.92;12.43;;;14.10;99.90;;;;;;5091945;28;20090;-70
2022/05/20 06:25:13;;;;;;;15.40;11.35;;;14.30;99.90;;;;;;5091886;28;20048;-70
2022/05/20 06:27:39;;;;;;;20.88;11.85;;;14.20;99.90;;;;;;5092067;28;20106;-70
2022/05/20 06:30:08;;;;;;;13.93;9.93;;;14.30;99.90;;;;;;5091712;28;20055;-70
2022/05/20 06:32:34;;;;;;;14.52;8.95;;;14.60;99.90;;;;;;5091910;28;20066;-75
2022/05/20 06:40:44;;;;;;;13.40;8.57;;;14.80;99.90;;;;;;5072697;28;20157;-71
2022/05/20 06:43:15;;;;;;;11.57;7.28;;;14.90;99.90;;;;;;5091443;28;20173;-71
2022/05/20 06:45:43;;;;;;;13.68;7.65;;;15.10;99.90;;;;;;5091630;28;20119;-71
2022/05/20 06:48:08;;;;;;;11.68;6.88;;;15.20;99.90;;;;;;5073450;28;20608;-73
2022/05/20 06:50:39;;;;;;;15.40;7.43;;;15.20;99.90;;;;;;5072787;28;20135;-74
2022/05/20 06:53:05;;;;;;;11.18;7.28;;;15.30;99.90;;;;;;5091298;28;20040;-73
2022/05/20 06:55:31;;;;;;;12.45;7.68;;;15.40;99.90;;;;;;5090920;28;20040;-71
2022/05/20 06:57:57;;;;;;;13.20;7.60;;;15.40;99.90;;;;;;5072803;28;20052;-70
2022/05/20 07:00:23;;;;;;;12.30;7.82;;;15.50;99.90;;;;;;5091401;28;20044;-70
2022/05/20 07:02:48;;;;;;;12.63;7.25;;;15.50;99.90;;;;;;5091197;28;20252;-70
2022/05/20 07:05:14;;;;;;;18.77;6.28;;;15.60;99.90;;;;;;5073072;28;20048;-71
2022/05/20 07:07:40;;;;;;;13.65;6.68;;;15.70;99.90;;;;;;5090960;28;20110;-71
2022/05/20 07:10:08;;;;;;;11.38;6.20;;;15.80;99.90;;;;;;5090799;28;21143;-71
2022/05/20 07:12:34;;;;;;;13.60;7.00;;;16.00;99.90;;;;;;5091082;28;20051;-72
2022/05/20 07:15:02;;;;;;;13.27;7.30;;;16.10;99.90;;;;;;5091411;28;20040;-70
2022/05/20 07:17:28;;;;;;;13.95;6.65;;;16.30;99.90;;;;;;5091491;28;20059;-70
2022/05/20 07:19:54;;;;;;;11.60;6.47;;;16.40;99.90;;;;;;5072978;28;20036;-68
2022/05/20 07:22:20;;;;;;;12.23;6.57;;;16.50;99.90;;;;;;5072655;28;20411;-73
2022/05/20 07:24:46;;;;;;;10.48;5.85;;;16.60;99.90;;;;;;5090454;28;20044;-71
2022/05/20 07:27:12;;;;;;;12.02;6.68;;;16.60;99.90;;;;;;5072126;28;20066;-71
2022/05/20 07:29:38;;;;;;;8.48;5.28;;;16.60;99.90;;;;;;5090891;28;20105;-72
2022/05/20 07:32:05;;;;;;;8.93;5.47;;;16.60;99.90;;;;;;5090897;28;20040;-71
2022/05/20 07:34:30;;;;;;;16.48;5.35;;;16.80;99.90;;;;;;5090626;28;20495;-72
2022/05/20 07:36:56;;;;;;;13.10;4.80;;;16.90;99.90;;;;;;5090731;28;20060;-71
2022/05/20 07:39:22;;;;;;;8.20;4.82;;;16.90;99.90;;;;;;5072122;28;20737;-72
2022/05/20 07:41:47;;;;;;;9.25;3.60;;;17.10;99.90;;;;;;5071786;28;20048;-71
2022/05/20 07:44:13;;;;;;;10.65;4.88;;;17.40;99.90;;;;;;5072359;28;20466;-73
2022/05/20 07:46:39;;;;;;;10.20;5.05;;;17.30;99.90;;;;;;5090572;28;20134;-71
2022/05/20 07:49:05;;;;;;;12.40;5.22;;;17.30;99.90;;;;;;5090584;28;20119;-71
2022/05/20 07:51:33;;;;;;;12.05;4.22;;;17.30;99.90;;;;;;5072493;28;20514;-72
2022/05/20 07:54:07;;;;;;;11.23;4.03;;;17.20;99.90;;;;;;5071669;28;20089;-71
2022/05/20 07:56:37;;;;;;;9.90;3.90;;;17.30;99.90;;;;;;5089874;28;20507;-72
2022/05/20 07:59:14;;;;;;;9.48;3.55;;;17.40;99.90;;;;;;5072206;28;20051;-71
2022/05/20 08:01:44;;;;;;;7.15;3.60;;;17.40;99.90;;;;;;5090348;28;20074;-70
2022/05/20 08:07:03;;;;;;;7.53;3.03;;;17.80;99.90;;;;;;5090119;28;20063;-71
2022/05/20 08:09:29;;;;;;;9.07;3.22;;;17.90;99.90;;;;;;5093184;28;20082;-73
2022/05/20 08:11:59;;;;;;;9.45;3.78;;;17.90;99.90;;;;;;5094477;28;20043;-71
2022/05/20 08:14:26;;;;;;;7.03;3.10;;;18.00;99.90;;;;;;5076079;28;20044;-71
2022/05/20 08:16:52;;;;;;;9.15;3.33;;;18.10;99.90;;;;;;5094384;28;20066;-71
2022/05/20 08:19:18;;;;;;;8.35;3.55;;;18.30;99.90;;;;;;5094596;28;20398;-71
2022/05/20 08:21:44;;;;;;;9.32;2.85;;;18.20;99.90;;;;;;5094762;28;20036;-72
2022/05/20 08:24:09;;;;;;;7.78;2.50;;;18.20;99.90;;;;;;5094467;28;20583;-72
2022/05/20 08:26:35;;;;;;;5.88;2.45;;;18.30;99.90;;;;;;5094356;28;20127;-71
2022/05/20 08:29:03;;;;;;;5.93;1.80;;;18.20;99.90;;;;;;5093852;28;20487;-71
2022/05/20 08:31:29;;;;;;;7.20;2.80;;;18.20;99.90;;;;;;5094324;28;20115;-72
2022/05/20 08:33:55;;;;;;;6.50;2.28;;;18.30;99.90;;;;;;5058544;28;20538;-72
2022/05/20 08:36:21;;;;;;;5.70;2.30;;;18.40;99.90;;;;;;5093830;28;20483;-71
2022/05/20 08:38:48;;;;;;;9.73;2.95;;;18.50;99.90;;;;;;5074944;28;20087;-73
2022/05/20 08:41:42;;;;;;;9.27;2.90;;;18.70;99.90;;;;;;5093977;28;20503;-73
2022/05/20 08:44:12;;;;;;;7.10;2.60;;;19.00;99.90;;;;;;5089751;28;20530;-71
2022/05/20 08:46:40;;;;;;;7.30;2.53;;;19.10;99.90;;;;;;5093824;28;20036;-72
2022/05/20 08:49:12;;;;;;;7.18;2.55;;;19.40;99.90;;;;;;5093924;28;20051;-72
2022/05/20 08:51:39;;;;;;;8.75;2.80;;;19.60;99.90;;;;;;5075496;28;20071;-72
2022/05/20 08:54:05;;;;;;;6.68;2.25;;;19.50;99.90;;;;;;5074756;28;20089;-75
2022/05/20 08:56:31;;;;;;;6.22;2.30;;;19.50;99.90;;;;;;5093733;28;20044;-72
2022/05/20 08:59:00;;;;;;;6.72;2.25;;;19.60;99.90;;;;;;5093518;28;20043;-72
2022/05/20 09:01:34;;;;;;;6.03;2.30;;;19.70;99.90;;;;;;5075243;28;20437;-74
2022/05/20 09:04:01;;;;;;;9.75;2.50;;;19.80;99.90;;;;;;5093599;28;20052;-72
2022/05/20 09:06:28;;;;;;;6.18;2.20;;;19.90;99.90;;;;;;5093532;28;20417;-72
2022/05/20 09:09:14;;;;;;;5.97;2.22;;;19.80;99.90;;;;;;5093371;28;20048;-71
2022/05/20 09:11:44;;;;;;;8.00;3.30;;;19.90;99.90;;;;;;5075210;28;20056;-73
2022/05/20 09:17:12;;;;;;;5.10;2.63;;;19.80;99.90;;;;;;5074892;28;20491;-76
2022/05/20 09:19:39;;;;;;;9.10;3.50;;;19.80;99.90;;;;;;5093057;28;20048;-72
2022/05/20 09:22:14;;;;;;;5.75;2.33;;;19.80;99.90;;;;;;5075095;28;20047;-72
2022/05/20 09:24:43;;;;;;;9.05;2.85;;;19.80;99.90;;;;;;5075283;28;20126;-75
2022/05/20 09:27:17;;;;;;;5.80;3.45;;;19.90;99.90;;;;;;5093007;28;20055;-71
2022/05/20 09:29:53;;;;;;;7.40;3.58;;;19.80;99.90;;;;;;5092996;28;20040;-72
2022/05/20 09:32:35;;;;;;;6.35;3.67;;;20.00;99.90;;;;;;5074626;28;20657;-71
2022/05/20 09:35:06;;;;;;;6.32;3.03;;;20.00;99.90;;;;;;5092823;28;20144;-71
2022/05/20 09:37:34;;;;;;;7.18;3.17;;;20.10;99.90;;;;;;5093088;28;20047;-73
2022/05/20 09:40:30;;;;;;;8.45;3.38;;;20.20;99.90;;;;;;5093043;28;20087;-74
2022/05/20 09:43:03;;;;;;;6.70;3.92;;;20.20;99.90;;;;;;5092992;28;20055;-73
2022/05/20 09:45:36;;;;;;;9.80;4.22;;;20.30;99.90;;;;;;5092210;28;20090;-71
2022/05/20 09:48:01;;;;;;;7.70;4.18;;;20.20;99.90;;;;;;5092778;28;20071;-76
2022/05/20 09:50:31;;;;;;;5.60;2.70;;;20.20;99.90;;;;;;5092920;28;20483;-72
2022/05/20 09:53:13;;;;;;;6.57;3.50;;;20.20;99.90;;;;;;5074356;28;20133;-73
2022/05/20 09:55:42;;;;;;;6.95;3.58;;;20.10;99.90;;;;;;5092506;28;20060;-72
2022/05/20 09:58:28;;;;;;;8.35;3.55;;;20.20;99.90;;;;;;5092383;28;20040;-72
2022/05/20 10:00:59;;;;;;;9.20;3.80;;;20.10;99.90;;;;;;5092164;28;20069;-73
2022/05/20 10:03:33;;;;;;;8.13;3.70;;;20.10;99.90;;;;;;5092401;28;20139;-72
2022/05/20 10:06:22;;;;;;;9.37;3.60;;;20.00;99.90;;;;;;5074377;28;20133;-73
2022/05/20 10:09:12;;;;;;;5.57;3.38;;;20.00;99.90;;;;;;5092460;28;20281;-72
2022/05/20 10:11:54;;;;;;;8.07;3.38;;;19.90;99.90;;;;;;5092119;28;20074;-72
2022/05/20 10:14:40;;;;;;;10.55;3.95;;;20.00;99.90;;;;;;5092071;28;20096;-72
2022/05/20 10:17:46;;;;;;;6.20;3.40;;;20.00;99.90;;;;;;5073626;28;20127;-71
2022/05/20 10:20:35;;;;;;;6.05;3.17;;;20.00;99.90;;;;;;5073602;28;20044;-72
2022/05/20 10:23:39;;;;;;;7.72;2.90;;;20.00;99.90;;;;;;5073759;28;20113;-71
2022/05/20 10:26:29;;;;;;;7.07;2.60;;;20.00;99.90;;;;;;5091985;28;20135;-71
2022/05/20 10:34:53;;;;;;;6.13;2.65;;;20.10;99.90;;;;;;5073235;28;20066;-72
2022/05/20 10:37:34;;;;;;;6.40;3.17;;;20.10;99.90;;;;;;5091805;28;20522;-73
2022/05/20 10:40:37;;;;;;;7.63;2.92;;;20.10;99.90;;;;;;5091904;28;20487;-72
2022/05/20 10:50:06;;;;;;;3.85;2.20;;;20.30;99.90;;;;;;4993103;28;20066;-72
2022/05/20 10:52:32;;;;;;;6.43;2.25;;;20.30;99.90;;;;;;5008298;28;20074;-74
2022/05/20 10:55:10;;;;;;;9.32;2.60;;;20.20;99.90;;;;;;5009047;28;20177;-72
2022/05/20 10:57:48;;;;;;;6.10;2.22;;;20.30;99.90;;;;;;5008971;28;20058;-71
2022/05/20 11:00:22;;;;;;;5.40;1.92;;;20.30;99.90;;;;;;4992648;28;20057;-72
2022/05/20 11:03:11;;;;;;;5.32;2.05;;;20.30;99.90;;;;;;4992217;28;20049;-71
2022/05/20 11:05:59;;;;;;;5.32;2.08;;;20.40;99.90;;;;;;5008852;28;20050;-71
2022/05/20 11:08:28;;;;;;;6.10;2.38;;;20.30;99.90;;;;;;5021136;28;20219;-73
2022/05/20 11:11:06;;;;;;;5.90;2.13;;;20.30;99.90;;;;;;5028305;28;20078;-72
2022/05/20 11:13:41;;;;;;;5.65;2.80;;;20.40;99.90;;;;;;5011800;28;20512;-73
2022/05/20 11:16:31;;;;;;;;;;;20.40;99.90;;;;;;5028955;28;20470;-73
2022/05/20 11:19:07;;;;;;;4.43;1.90;;;20.50;99.90;;;;;;4969066;28;20362;-72
2022/05/20 11:21:41;;;;;;;5.93;2.33;;;20.40;99.90;;;;;;4969651;28;20063;-74
2022/05/20 11:24:30;;;;;;;7.10;2.58;;;20.60;99.90;;;;;;5000269;28;20132;-70
2022/05/20 11:27:32;;;;;;;5.30;2.15;;;20.70;99.90;;;;;;4934197;29;20091;-72
2022/05/20 11:30:30;;;;;;;3.55;1.92;;;21.00;99.90;;;;;;4934218;29;20055;-71
2022/05/20 11:33:24;;;;;;;4.68;2.00;;;21.20;99.90;;;;;;4950094;29;20147;-71
2022/05/20 11:36:01;;;;;;;8.32;2.38;;;21.20;99.90;;;;;;4950484;29;20493;-71
2022/05/20 11:38:48;;;;;;;5.50;2.63;;;21.30;99.90;;;;;;4934195;29;20109;-71
2022/05/20 11:41:58;;;;;;;8.20;2.50;;;21.40;99.90;;;;;;4934396;29;20039;-70
2022/05/20 11:44:45;;;;;;;4.93;2.15;;;21.50;99.90;;;;;;4934039;29;20059;-71
2022/05/20 11:47:52;;;;;;;8.48;2.25;;;21.50;99.90;;;;;;4950139;29;20051;-71
2022/05/20 11:50:31;;;;;;;7.78;2.67;;;21.70;99.50;;;;;;4895999;29;20095;-71
2022/05/20 11:53:12;;;;;;;3.55;1.90;;;21.80;99.90;;;;;;4911660;29;20090;-72
2022/05/20 11:55:56;;;;;;;4.60;2.20;;;21.80;97.30;;;;;;4934328;29;20448;-72
2022/05/20 11:58:28;;;;;;;;;;;21.80;97.10;;;;;;4931407;29;20103;-72
2022/05/20 12:00:54;;;;;;;7.10;1.90;;;21.90;98.00;;;;;;4930926;29;19933;-72
2022/05/20 12:03:26;;;;;;;4.95;1.73;;;21.70;98.60;;;;;;4948574;28;20144;-71
2022/05/20 12:05:54;;;;;;;4.53;2.05;;;21.80;97.60;;;;;;4991297;28;20069;-74
2022/05/20 12:08:37;;;;;;;3.80;1.83;;;21.90;98.20;;;;;;5007700;28;20058;-74
2022/05/20 12:11:23;;;;;;;5.45;1.50;;;21.70;94.80;;;;;;4991459;28;20049;-77
2022/05/20 12:14:07;;;;;;;4.22;1.40;;;21.70;95.60;;;;;;5007999;28;20073;-73
2022/05/20 12:16:54;;;;;;;3.35;1.50;;;21.60;94.80;;;;;;4991966;28;20056;-72
2022/05/20 12:25:38;;;;;;;5.35;1.75;;;21.60;95.10;;;;;;5075657;28;20052;-72
2022/05/20 12:28:24;;;;;;;5.13;1.67;;;21.70;96.00;;;;;;5090155;28;20048;-74
2022/05/20 12:31:08;;;;;;;5.85;2.17;;;22.00;96.90;;;;;;5055033;28;20517;-73
2022/05/20 12:33:57;;;;;;;6.35;2.10;;;22.00;95.80;;;;;;5089847;28;20163;-74
2022/05/20 12:36:33;;;;;;;5.82;2.20;;;22.20;96.40;;;;;;5071680;28;20056;-72
2022/05/20 12:39:12;;;;;;;4.82;1.92;;;22.20;95.20;;;;;;5090216;28;20048;-72
2022/05/20 12:41:59;;;;;;;6.78;2.65;;;22.20;95.50;;;;;;5071867;28;20056;-72
2022/05/20 12:44:25;;;;;;;6.57;1.95;;;22.10;96.10;;;;;;5071862;28;20119;-73
2022/05/20 12:47:09;;;;;;;5.32;2.35;;;22.10;96.10;;;;;;5071781;28;20076;-73
2022/05/20 12:49:47;;;;;;;5.78;2.53;;;22.10;96.40;;;;;;5071877;28;20044;-74
2022/05/20 12:52:14;;;;;;;5.97;2.20;;;22.10;96.70;;;;;;5054684;28;20040;-74
2022/05/20 12:54:43;;;;;;;6.22;3.00;;;22.10;96.80;;;;;;5091254;28;20044;-71
2022/05/20 12:57:27;;;;;;;4.70;2.20;;;22.20;96.50;;;;;;5093750;28;20044;-72
2022/05/20 13:00:03;;;;;;;6.68;2.40;;;22.40;97.10;;;;;;5093601;28;20055;-72
2022/05/20 13:02:41;;;;;;;8.88;3.03;;;22.40;95.90;;;;;;5075305;28;20055;-71
2022/05/20 13:05:16;;;;;;;5.18;2.65;;;22.20;96.00;;;;;;5075421;28;20056;-72
2022/05/20 13:07:43;;;;;;;9.23;2.72;;;22.10;96.40;;;;;;5093060;28;20380;-72
2022/05/20 13:10:25;;;;;;;5.25;2.42;;;21.80;96.30;;;;;;5093593;28;20271;-72
2022/05/20 13:12:53;;;;;;;6.95;2.67;;;21.60;96.30;;;;;;5093167;28;20044;-74
2022/05/20 13:15:19;;;;;;;6.57;2.40;;;21.40;96.30;;;;;;5075054;28;20059;-74
2022/05/20 13:17:59;;;;;;;4.70;2.30;;;21.30;96.30;;;;;;5093484;28;20057;-73
2022/05/20 13:20:28;;;;;;;6.45;2.50;;;21.30;96.20;;;;;;5093388;28;20069;-74
2022/05/20 13:23:02;;;;;;;6.65;2.38;;;21.10;96.00;;;;;;5074548;28;20044;-71
2022/05/20 13:25:28;;;;;;;5.05;2.10;;;21.00;95.60;;;;;;5075000;28;20040;-70
2022/05/20 13:27:54;;;;;;;5.97;2.40;;;20.80;95.20;;;;;;5093013;28;20395;-72
2022/05/20 13:30:25;;;;;;;6.53;2.72;;;20.70;93.90;;;;;;5093173;28;20044;-72
2022/05/20 13:32:51;;;;;;;6.57;1.80;;;20.50;94.90;;;;;;5093007;28;20052;-72
2022/05/20 13:35:17;;;;;;;4.88;2.42;;;20.50;94.90;;;;;;5074630;28;20089;-72
2022/05/20 13:37:54;;;;;;;3.60;1.88;;;20.40;94.80;;;;;;5092701;28;20130;-71
2022/05/20 13:40:22;;;;;;;3.35;1.75;;;20.40;94.70;;;;;;5074629;28;20081;-72
2022/05/20 13:42:51;;;;;;;4.68;2.15;;;20.30;94.90;;;;;;5074429;28;20048;-71
2022/05/20 13:45:20;;;;;;;5.45;2.60;;;20.20;95.40;;;;;;5092645;28;20484;-71
2022/05/20 13:50:31;;;;;;;9.40;3.17;;;20.10;96.10;;;;;;5092911;28;20055;-72